createdAt,value
2023-01-22T00:00:09.151Z,94787.84
2023-01-22T00:02:41.462Z,94790.72
2023-01-22T00:05:09.684Z,94787.03
2023-01-22T00:07:36.225Z,94782.09
2023-01-22T00:10:03.043Z,94783.59
2023-01-22T00:12:29.991Z,94779.00
2023-01-22T00:14:56.589Z,94786.34
2023-01-22T00:17:23.552Z,94774.97
2023-01-22T00:19:50.331Z,94772.06
2023-01-22T00:22:16.977Z,94780.81
2023-01-22T00:24:43.569Z,94769.09
2023-01-22T00:27:10.169Z,94778.13
2023-01-22T00:29:36.741Z,94776.63
2023-01-22T00:32:03.949Z,94768.69
2023-01-22T00:34:30.880Z,94767.13
2023-01-22T00:36:57.642Z,94770.28
2023-01-22T00:39:24.177Z,94771.19
2023-01-22T00:41:51.980Z,94767.91
2023-01-22T00:44:18.659Z,94764.44
2023-01-22T00:46:45.321Z,94767.13
2023-01-22T00:49:12.497Z,94765.44
2023-01-22T00:51:39.559Z,94768.59
2023-01-22T00:54:06.649Z,94762.66
2023-01-22T00:56:33.423Z,94760.06
2023-01-22T00:59:00.024Z,94754.13
2023-01-22T01:01:26.874Z,94755.81
2023-01-22T01:03:53.837Z,94752.41
2023-01-22T01:06:21.641Z,94752.13
2023-01-22T01:08:49.617Z,94755.91
2023-01-22T01:11:19.061Z,94758.88
2023-01-22T01:13:45.635Z,94756.19
2023-01-22T01:16:16.484Z,94752.03
2023-01-22T01:18:45.449Z,94746.56
2023-01-22T01:21:12.473Z,94743.28
2023-01-22T01:23:39.338Z,94739.22
2023-01-22T01:26:07.974Z,94738.72
2023-01-22T01:28:36.555Z,94744.09
2023-01-22T01:31:08.582Z,94741.03
2023-01-22T01:33:35.244Z,94739.53
2023-01-22T01:36:04.934Z,94740.25
2023-01-22T01:38:32.280Z,94740.31
2023-01-22T01:40:59.601Z,94736.56
2023-01-22T01:43:27.209Z,94741.81
2023-01-22T01:45:55.703Z,94737.66
2023-01-22T01:48:31.805Z,94731.47
2023-01-22T01:51:04.817Z,94739.94
2023-01-22T01:53:32.162Z,94729.69
2023-01-22T01:56:00.907Z,94732.88
2023-01-22T01:58:31.844Z,94736.13
2023-01-22T02:01:03.527Z,94739.31
2023-01-22T02:03:30.115Z,94735.06
2023-01-22T02:05:57.258Z,94727.03
2023-01-22T02:08:24.004Z,94733.88
2023-01-22T02:10:50.895Z,94731.69
2023-01-22T02:13:27.398Z,94732.47
2023-01-22T02:15:54.180Z,94732.97
2023-01-22T02:18:20.722Z,94727.91
2023-01-22T02:20:57.313Z,94731.16
2023-01-22T02:23:24.420Z,94732.75
2023-01-22T02:25:51.515Z,94732.09
2023-01-22T02:28:18.874Z,94726.72
2023-01-22T02:30:46.742Z,94730.97
2023-01-22T02:33:15.995Z,94723.06
2023-01-22T02:35:44.180Z,94717.69
2023-01-22T02:38:11.620Z,94715.22
2023-01-22T02:40:49.050Z,94719.38
2023-01-22T02:43:18.397Z,94718.28
2023-01-22T02:45:45.188Z,94709.66
2023-01-22T02:48:12.810Z,94707.25
2023-01-22T02:50:39.560Z,94716.50
2023-01-22T02:53:06.197Z,94710.03
2023-01-22T02:55:32.826Z,94710.56
2023-01-22T02:57:59.394Z,94711.63
2023-01-22T03:00:25.964Z,94709.66
2023-01-22T03:02:52.572Z,94718.66
2023-01-22T03:05:19.143Z,94714.50
2023-01-22T03:07:45.667Z,94706.34
2023-01-22T03:10:15.972Z,94707.63
2023-01-22T03:13:03.252Z,94715.19
2023-01-22T03:15:48.870Z,94716.47
2023-01-22T03:18:34.436Z,94717.19
2023-01-22T03:21:18.702Z,94712.22
2023-01-22T03:23:50.397Z,94706.47
2023-01-22T03:26:18.911Z,94705.06
2023-01-22T03:28:46.530Z,94711.72
2023-01-22T03:31:14.741Z,94707.22
2023-01-22T03:33:41.801Z,94701.88
2023-01-22T03:36:11.781Z,94710.72
2023-01-22T03:38:43.031Z,94704.47
2023-01-22T03:41:15.978Z,94707.34
2023-01-22T03:43:44.530Z,94704.34
2023-01-22T03:46:19.767Z,94711.63
2023-01-22T03:48:51.344Z,94709.66
2023-01-22T03:51:18.396Z,94710.03
2023-01-22T03:53:45.923Z,94706.09
2023-01-22T03:56:15.758Z,94709.25
2023-01-22T03:58:42.796Z,94703.28
2023-01-22T04:01:12.980Z,94696.63
2023-01-22T04:03:39.554Z,94699.00
2023-01-22T04:06:09.084Z,94702.88
2023-01-22T04:08:37.825Z,94709.44
2023-01-22T04:11:04.678Z,94708.38
2023-01-22T04:13:33.099Z,94704.16
2023-01-22T04:16:00.451Z,94702.28
2023-01-22T04:18:45.676Z,94704.75
2023-01-22T04:21:25.447Z,94711.25
2023-01-22T04:23:54.279Z,94715.28
2023-01-22T04:26:20.813Z,94716.84
2023-01-22T04:28:47.866Z,94708.94
2023-01-22T04:31:15.076Z,94717.84
2023-01-22T04:33:44.931Z,94710.78
2023-01-22T04:36:18.053Z,94721.69
2023-01-22T04:38:45.165Z,94714.69
2023-01-22T04:41:11.756Z,94717.75
2023-01-22T04:43:38.307Z,94723.94
2023-01-22T04:46:05.207Z,94732.63
2023-01-22T04:48:33.076Z,94717.56
2023-01-22T04:51:00.211Z,94717.34
2023-01-22T04:53:29.268Z,94720.63
2023-01-22T04:55:55.859Z,94724.88
2023-01-22T04:58:22.451Z,94730.97
2023-01-22T05:00:50.464Z,94736.78
2023-01-22T05:03:17.309Z,94734.41
2023-01-22T05:05:43.926Z,94739.97
2023-01-22T05:08:11.339Z,94735.78
2023-01-22T05:10:38.307Z,94739.06
2023-01-22T05:13:07.641Z,94744.44
2023-01-22T05:15:35.230Z,94744.81
2023-01-22T05:18:08.916Z,94739.63
2023-01-22T05:20:37.533Z,94744.69
2023-01-22T05:23:04.403Z,94750.44
2023-01-22T05:25:31.670Z,94749.41
2023-01-22T05:27:59.282Z,94744.22
2023-01-22T05:30:48.428Z,94753.03
2023-01-22T05:33:24.709Z,94744.81
2023-01-22T05:35:59.021Z,94754.31
2023-01-22T05:38:26.419Z,94752.53
2023-01-22T05:40:53.112Z,94762.28
2023-01-22T05:43:21.269Z,94753.94
2023-01-22T05:45:53.370Z,94750.47
2023-01-22T05:48:42.843Z,94757.13
2023-01-22T05:51:16.366Z,94748.94
2023-01-22T05:53:43.052Z,94749.34
2023-01-22T05:56:10.142Z,94748.25
2023-01-22T05:58:38.890Z,94745.38
2023-01-22T06:01:06.625Z,94752.22
2023-01-22T06:03:40.310Z,94751.91
2023-01-22T06:06:10.909Z,94754.19
2023-01-22T06:08:38.360Z,94759.63
2023-01-22T06:11:08.908Z,94761.72
2023-01-22T06:13:35.496Z,94761.44
2023-01-22T06:16:10.624Z,94765.69
2023-01-22T06:18:58.527Z,94775.44
2023-01-22T06:21:28.405Z,94778.41
2023-01-22T06:23:55.358Z,94782.59
2023-01-22T06:26:22.124Z,94785.16
2023-01-22T06:28:48.768Z,94788.84
2023-01-22T06:31:15.714Z,94785.84
2023-01-22T06:33:42.287Z,94789.34
2023-01-22T06:36:09.790Z,94792.50
2023-01-22T06:38:38.854Z,94789.22
2023-01-22T06:41:09.412Z,94790.72
2023-01-22T06:43:37.713Z,94794.19
2023-01-22T06:46:05.377Z,94796.97
2023-01-22T06:48:54.851Z,94806.28
2023-01-22T06:51:22.903Z,94803.81
2023-01-22T06:53:49.484Z,94807.59
2023-01-22T06:56:19.440Z,94807.00
2023-01-22T06:58:45.980Z,94811.75
2023-01-22T07:01:12.589Z,94807.06
2023-01-22T07:03:39.176Z,94800.53
2023-01-22T07:06:06.058Z,94810.88
2023-01-22T07:08:33.719Z,94812.03
2023-01-22T07:11:01.001Z,94815.34
2023-01-22T07:13:27.547Z,94827.34
2023-01-22T07:15:54.365Z,94822.88
2023-01-22T07:18:23.740Z,94815.84
2023-01-22T07:20:50.468Z,94818.63
2023-01-22T07:23:17.043Z,94831.22
2023-01-22T07:25:44.756Z,94828.84
2023-01-22T07:28:14.751Z,94825.97
2023-01-22T07:30:42.574Z,94835.97
2023-01-22T07:33:11.696Z,94830.81
2023-01-22T07:35:39.099Z,94835.97
2023-01-22T07:38:06.862Z,94836.97
2023-01-22T07:40:33.884Z,94831.00
2023-01-22T07:43:04.538Z,94830.22
2023-01-22T07:45:32.276Z,94840.34
2023-01-22T07:47:59.996Z,94835.91
2023-01-22T07:50:31.704Z,94839.66
2023-01-22T07:52:58.326Z,94839.25
2023-01-22T07:55:24.958Z,94841.53
2023-01-22T07:58:00.266Z,94842.81
2023-01-22T08:00:26.969Z,94845.81
2023-01-22T08:02:53.654Z,94845.28
2023-01-22T08:05:20.306Z,94846.59
2023-01-22T08:07:46.890Z,94845.50
2023-01-22T08:10:15.122Z,94848.56
2023-01-22T08:12:46.159Z,94851.03
2023-01-22T08:15:13.781Z,94852.22
2023-01-22T08:17:40.554Z,94851.75
2023-01-22T08:20:08.380Z,94853.91
2023-01-22T08:22:34.932Z,94849.13
2023-01-22T08:25:01.515Z,94847.88
2023-01-22T08:27:28.079Z,94851.75
2023-01-22T08:29:55.260Z,94861.91
2023-01-22T08:32:22.099Z,94849.56
2023-01-22T08:34:48.664Z,94855.22
2023-01-22T08:37:15.219Z,94864.19
2023-01-22T08:39:41.770Z,94864.97
2023-01-22T08:42:08.312Z,94859.47
2023-01-22T08:44:34.820Z,94862.44
2023-01-22T08:47:01.397Z,94866.69
2023-01-22T08:49:30.512Z,94863.81
2023-01-22T08:51:57.247Z,94867.69
2023-01-22T08:54:24.085Z,94863.53
2023-01-22T08:56:50.714Z,94863.03
2023-01-22T08:59:17.274Z,94858.38
2023-01-22T09:01:43.913Z,94861.28
2023-01-22T09:04:11.414Z,94857.84
2023-01-22T09:06:39.093Z,94868.13
2023-01-22T09:09:06.701Z,94865.25
2023-01-22T09:11:33.627Z,94870.63
2023-01-22T09:14:00.168Z,94871.16
2023-01-22T09:16:27.722Z,94876.22
2023-01-22T09:18:54.308Z,94881.00
2023-01-22T09:21:20.836Z,94880.81
2023-01-22T09:23:47.336Z,94887.00
2023-01-22T09:26:13.876Z,94887.28
2023-01-22T09:28:40.399Z,94884.78
2023-01-22T09:31:07.020Z,94896.78
2023-01-22T09:33:33.592Z,94894.63
2023-01-22T09:36:11.057Z,94894.53
2023-01-22T09:38:38.331Z,94894.16
2023-01-22T09:41:14.439Z,94894.84
2023-01-22T09:43:49.207Z,94896.91
2023-01-22T09:46:30.415Z,94892.63
2023-01-22T09:49:00.731Z,94901.97
2023-01-22T09:51:27.403Z,94899.28
2023-01-22T09:53:57.613Z,94899.78
2023-01-22T09:56:40.322Z,94887.06
2023-01-22T09:59:18.719Z,94896.59
2023-01-22T10:01:48.961Z,94898.88
2023-01-22T10:04:42.403Z,94894.34
2023-01-22T10:07:24.079Z,94889.16
2023-01-22T10:09:54.699Z,94892.72
2023-01-22T10:12:21.398Z,94892.13
2023-01-22T10:14:50.951Z,94885.16
2023-01-22T10:17:24.650Z,94893.09
2023-01-22T10:19:59.626Z,94892.25
2023-01-22T10:22:27.049Z,94882.59
2023-01-22T10:24:54.441Z,94887.13
2023-01-22T10:27:35.192Z,94890.66
2023-01-22T10:30:08.953Z,94899.56
2023-01-22T10:32:35.519Z,94901.94
2023-01-22T10:35:10.891Z,94905.88
2023-01-22T10:37:47.028Z,94893.84
2023-01-22T10:40:34.926Z,94897.97
2023-01-22T10:43:06.891Z,94896.16
2023-01-22T10:45:33.501Z,94907.16
2023-01-22T10:48:04.806Z,94900.53
2023-01-22T10:50:31.512Z,94900.28
2023-01-22T10:52:58.868Z,94905.78
2023-01-22T10:55:29.874Z,94900.56
2023-01-22T10:58:04.271Z,94893.63
2023-01-22T11:00:50.948Z,94885.91
2023-01-22T11:03:32.672Z,94890.63
2023-01-22T11:06:04.466Z,94891.47
2023-01-22T11:08:37.578Z,94890.19
2023-01-22T11:11:09.953Z,94889.72
2023-01-22T11:14:10.193Z,94890.34
2023-01-22T11:16:40.348Z,94891.47
2023-01-22T11:19:13.812Z,94892.41
2023-01-22T11:21:51.790Z,94895.41
2023-01-22T11:24:28.055Z,94895.22
2023-01-22T11:27:09.517Z,94890.47
2023-01-22T11:29:54.300Z,94900.94
2023-01-22T11:32:32.959Z,94907.50
2023-01-22T11:35:17.487Z,94906.81
2023-01-22T11:38:13.412Z,94903.22
2023-01-22T11:41:01.640Z,94904.16
2023-01-22T11:43:58.594Z,94894.66
2023-01-22T11:46:31.074Z,94893.81
2023-01-22T11:49:26.694Z,94898.78
2023-01-22T11:52:22.379Z,94899.91
2023-01-22T11:55:25.599Z,94892.38
2023-01-22T11:58:27.474Z,94885.88
2023-01-22T12:01:31.831Z,94889.38
2023-01-22T12:04:17.049Z,94875.47
2023-01-22T12:07:08.492Z,94886.22
2023-01-22T12:10:26.549Z,94871.78
2023-01-22T12:13:12.955Z,94881.94
2023-01-22T12:15:48.741Z,94877.50
2023-01-22T12:18:53.043Z,94879.06
2023-01-22T12:21:22.752Z,94870.84
2023-01-22T12:23:59.282Z,94880.50
2023-01-22T12:26:30.472Z,94879.84
2023-01-22T12:29:13.187Z,94877.84
2023-01-22T12:32:19.005Z,94892.47
2023-01-22T12:35:03.766Z,94885.19
2023-01-22T12:37:42.806Z,94876.94
2023-01-22T12:40:44.456Z,94884.56
2023-01-22T12:43:11.126Z,94887.00
2023-01-22T12:45:40.595Z,94891.63
2023-01-22T12:48:15.861Z,94894.50
2023-01-22T12:50:51.445Z,94898.59
2023-01-22T12:53:25.266Z,94905.06
2023-01-22T12:56:02.541Z,94912.19
2023-01-22T12:58:32.376Z,94899.06
2023-01-22T13:01:06.993Z,94897.63
2023-01-22T13:03:34.592Z,94908.28
2023-01-22T13:06:04.340Z,94904.25
2023-01-22T13:08:40.185Z,94908.56
2023-01-22T13:11:12.869Z,94903.91
2023-01-22T13:13:49.422Z,94909.38
2023-01-22T13:16:16.015Z,94903.34
2023-01-22T13:18:47.381Z,94903.25
2023-01-22T13:21:17.382Z,94913.06
2023-01-22T13:23:47.242Z,94909.56
2023-01-22T13:26:24.022Z,94910.72
2023-01-22T13:29:02.680Z,94923.44
2023-01-22T13:31:29.608Z,94916.44
2023-01-22T13:34:08.613Z,94930.06
2023-01-22T13:36:44.284Z,94929.91
2023-01-22T13:39:19.475Z,94928.63
2023-01-22T13:41:51.058Z,94923.91
2023-01-22T13:44:23.836Z,94931.25
2023-01-22T13:46:51.869Z,94933.69
2023-01-22T13:49:27.609Z,94935.41
2023-01-22T13:51:57.235Z,94930.09
2023-01-22T13:54:35.981Z,94931.69
2023-01-22T13:57:03.068Z,94940.22
2023-01-22T13:59:36.853Z,94940.25
2023-01-22T14:02:24.194Z,94935.59
2023-01-22T14:04:51.237Z,94944.00
2023-01-22T14:07:25.050Z,94933.47
2023-01-22T14:09:52.089Z,94938.97
2023-01-22T14:12:25.320Z,94934.91
2023-01-22T14:14:52.778Z,94954.66
2023-01-22T14:17:34.303Z,94952.69
2023-01-22T14:20:02.192Z,94952.91
2023-01-22T14:22:28.762Z,94953.72
2023-01-22T14:24:55.362Z,94959.75
2023-01-22T14:27:26.338Z,94955.50
2023-01-22T14:29:54.215Z,94965.44
2023-01-22T14:32:21.506Z,94964.06
2023-01-22T14:34:48.026Z,94962.53
2023-01-22T14:37:16.207Z,94969.28
2023-01-22T14:39:42.763Z,94967.75
2023-01-22T14:42:09.528Z,94967.59
2023-01-22T14:44:36.285Z,94973.09
2023-01-22T14:47:04.130Z,94968.66
2023-01-22T14:49:30.797Z,94968.13
2023-01-22T14:51:58.063Z,94969.50
2023-01-22T14:54:25.198Z,94971.41
2023-01-22T14:56:51.750Z,94976.97
2023-01-22T14:59:20.583Z,94976.66
2023-01-22T15:01:47.476Z,94973.22
2023-01-22T15:04:14.128Z,94978.47
2023-01-22T15:06:40.745Z,94982.16
2023-01-22T15:09:07.489Z,94978.44
2023-01-22T15:11:34.157Z,94974.03
2023-01-22T15:14:00.850Z,94979.03
2023-01-22T15:16:27.615Z,94971.41
2023-01-22T15:18:55.667Z,94974.69
2023-01-22T15:21:22.887Z,94979.03
2023-01-22T15:23:50.056Z,94980.88
2023-01-22T15:26:24.026Z,94988.41
2023-01-22T15:28:50.657Z,94996.47
2023-01-22T15:31:17.246Z,95002.16
2023-01-22T15:33:43.838Z,94993.69
2023-01-22T15:36:10.625Z,94994.78
2023-01-22T15:38:37.154Z,95000.88
2023-01-22T15:41:21.923Z,94999.09
2023-01-22T15:43:51.013Z,95004.38
2023-01-22T15:46:20.018Z,94995.06
2023-01-22T15:48:46.887Z,94994.94
2023-01-22T15:51:15.467Z,95002.41
2023-01-22T15:53:47.612Z,95004.97
2023-01-22T15:56:14.451Z,95000.38
2023-01-22T15:58:40.966Z,95006.06
2023-01-22T16:01:07.634Z,95008.94
2023-01-22T16:03:35.320Z,95010.75
2023-01-22T16:06:22.394Z,95015.75
2023-01-22T16:08:50.172Z,95012.28
2023-01-22T16:11:17.983Z,95015.16
2023-01-22T16:13:44.798Z,95009.06
2023-01-22T16:16:32.068Z,95014.94
2023-01-22T16:19:00.671Z,95015.34
2023-01-22T16:21:27.671Z,95015.94
2023-01-22T16:23:56.242Z,95021.41
2023-01-22T16:26:25.642Z,95028.38
2023-01-22T16:28:55.269Z,95026.59
2023-01-22T16:31:27.702Z,95031.19
2023-01-22T16:34:00.131Z,95028.00
2023-01-22T16:36:29.129Z,95034.16
2023-01-22T16:38:55.917Z,95036.31
2023-01-22T16:41:31.111Z,95028.47
2023-01-22T16:44:06.694Z,95033.75
2023-01-22T16:46:34.879Z,95031.16
2023-01-22T16:49:14.465Z,95041.22
2023-01-22T16:51:44.226Z,95043.91
2023-01-22T16:54:22.361Z,95047.56
2023-01-22T16:56:52.082Z,95044.19
2023-01-22T16:59:18.963Z,95045.91
2023-01-22T17:01:46.318Z,95048.78
2023-01-22T17:04:13.292Z,95053.94
2023-01-22T17:06:45.688Z,95050.97
2023-01-22T17:09:21.151Z,95052.34
2023-01-22T17:11:56.463Z,95052.25
2023-01-22T17:14:26.435Z,95045.41
2023-01-22T17:16:53.479Z,95051.84
2023-01-22T17:19:20.177Z,95050.84
2023-01-22T17:21:49.842Z,95067.56
2023-01-22T17:24:16.704Z,95068.34
2023-01-22T17:26:43.546Z,95064.50
2023-01-22T17:29:10.744Z,95066.19
2023-01-22T17:31:38.114Z,95072.56
2023-01-22T17:34:04.738Z,95071.94
2023-01-22T17:36:31.903Z,95077.59
2023-01-22T17:38:58.556Z,95072.66
2023-01-22T17:41:26.982Z,95070.56
2023-01-22T17:43:56.060Z,95080.59
2023-01-22T17:46:26.303Z,95080.00
2023-01-22T17:48:52.981Z,95087.75
2023-01-22T17:51:22.930Z,95082.91
2023-01-22T17:53:51.111Z,95086.56
2023-01-22T17:56:24.634Z,95086.75
2023-01-22T17:58:54.093Z,95088.75
2023-01-22T18:01:26.292Z,95099.50
2023-01-22T18:03:53.068Z,95098.28
2023-01-22T18:06:19.752Z,95095.53
2023-01-22T18:08:46.415Z,95099.00
2023-01-22T18:11:19.378Z,95098.41
2023-01-22T18:13:47.339Z,95095.34
2023-01-22T18:16:16.913Z,95099.00
2023-01-22T18:18:44.353Z,95105.25
2023-01-22T18:21:21.535Z,95108.75
2023-01-22T18:23:48.348Z,95108.56
2023-01-22T18:26:15.870Z,95109.34
2023-01-22T18:28:42.430Z,95113.22
2023-01-22T18:31:12.467Z,95112.72
2023-01-22T18:33:40.281Z,95105.47
2023-01-22T18:36:12.187Z,95107.84
2023-01-22T18:38:40.313Z,95109.72
2023-01-22T18:41:14.059Z,95120.09
2023-01-22T18:43:41.392Z,95119.78
2023-01-22T18:46:11.477Z,95116.50
2023-01-22T18:48:39.924Z,95118.88
2023-01-22T18:51:08.962Z,95119.00
2023-01-22T18:53:36.013Z,95124.47
2023-01-22T18:56:05.564Z,95123.25
2023-01-22T18:58:35.588Z,95129.25
2023-01-22T19:01:11.864Z,95133.53
2023-01-22T19:03:40.487Z,95128.53
2023-01-22T19:06:15.986Z,95124.16
2023-01-22T19:08:48.500Z,95127.06
2023-01-22T19:11:16.138Z,95129.03
2023-01-22T19:13:44.934Z,95132.31
2023-01-22T19:16:14.634Z,95133.03
2023-01-22T19:18:43.920Z,95131.44
2023-01-22T19:21:13.515Z,95131.22
2023-01-22T19:23:43.285Z,95141.56
2023-01-22T19:26:18.096Z,95128.72
2023-01-22T19:28:44.916Z,95134.09
2023-01-22T19:31:25.669Z,95139.28
2023-01-22T19:33:53.732Z,95128.84
2023-01-22T19:36:22.081Z,95131.03
2023-01-22T19:38:49.506Z,95126.16
2023-01-22T19:41:16.727Z,95133.03
2023-01-22T19:43:43.669Z,95119.97
2023-01-22T19:46:13.718Z,95129.25
2023-01-22T19:48:40.860Z,95131.63
2023-01-22T19:51:13.646Z,95134.69
2023-01-22T19:53:42.157Z,95140.56
2023-01-22T19:56:21.071Z,95138.31
2023-01-22T19:58:48.952Z,95139.28
2023-01-22T20:01:17.057Z,95142.47
2023-01-22T20:03:44.120Z,95135.81
2023-01-22T20:06:13.414Z,95136.22
2023-01-22T20:08:40.510Z,95143.84
2023-01-22T20:11:08.827Z,95140.56
2023-01-22T20:13:37.351Z,95144.84
2023-01-22T20:16:05.379Z,95142.16
2023-01-22T20:18:33.129Z,95143.16
2023-01-22T20:21:01.960Z,95146.75
2023-01-22T20:23:29.639Z,95153.50
2023-01-22T20:25:56.917Z,95155.09
2023-01-22T20:28:23.497Z,95157.00
2023-01-22T20:31:01.993Z,95155.72
2023-01-22T20:33:28.715Z,95155.72
2023-01-22T20:36:03.638Z,95155.81
2023-01-22T20:38:30.273Z,95159.28
2023-01-22T20:41:05.096Z,95159.19
2023-01-22T20:43:32.286Z,95156.41
2023-01-22T20:46:10.647Z,95156.78
2023-01-22T20:48:37.392Z,95167.44
2023-01-22T20:51:04.391Z,95163.75
2023-01-22T20:53:31.309Z,95175.69
2023-01-22T20:56:07.339Z,95171.28
2023-01-22T20:58:35.458Z,95160.28
2023-01-22T21:01:11.240Z,95162.84
2023-01-22T21:03:37.769Z,95166.22
2023-01-22T21:06:07.535Z,95163.94
2023-01-22T21:08:35.088Z,95157.59
2023-01-22T21:11:05.020Z,95172.50
2023-01-22T21:13:31.545Z,95180.84
2023-01-22T21:16:05.556Z,95173.31
2023-01-22T21:18:32.189Z,95171.41
2023-01-22T21:20:58.811Z,95175.28
2023-01-22T21:23:25.461Z,95168.59
2023-01-22T21:25:51.986Z,95172.69
2023-01-22T21:28:18.664Z,95165.94
2023-01-22T21:30:45.226Z,95171.00
2023-01-22T21:33:11.824Z,95172.19
2023-01-22T21:35:38.372Z,95167.44
2023-01-22T21:38:04.987Z,95162.16
2023-01-22T21:40:31.549Z,95172.00
2023-01-22T21:43:16.728Z,95173.41
2023-01-22T21:46:02.033Z,95171.28
2023-01-22T21:48:29.298Z,95173.50
2023-01-22T21:50:55.950Z,95161.25
2023-01-22T21:53:23.004Z,95173.50
2023-01-22T21:55:53.319Z,95176.59
2023-01-22T21:58:20.940Z,95177.97
2023-01-22T22:00:47.552Z,95178.47
2023-01-22T22:03:15.871Z,95184.50
2023-01-22T22:05:42.748Z,95180.59
2023-01-22T22:08:09.303Z,95178.06
2023-01-22T22:10:35.884Z,95180.34
2023-01-22T22:13:02.469Z,95186.13
2023-01-22T22:15:29.000Z,95189.25
2023-01-22T22:17:55.575Z,95184.16
2023-01-22T22:20:22.143Z,95193.09
2023-01-22T22:22:48.721Z,95184.69
2023-01-22T22:25:15.285Z,95190.31
2023-01-22T22:27:41.887Z,95178.31
2023-01-22T22:30:09.041Z,95177.31
2023-01-22T22:32:35.590Z,95181.91
2023-01-22T22:35:02.161Z,95183.13
2023-01-22T22:37:28.686Z,95183.22
2023-01-22T22:39:55.223Z,95183.63
2023-01-22T22:42:21.751Z,95180.25
2023-01-22T22:44:48.256Z,95181.44
2023-01-22T22:47:14.814Z,95186.69
2023-01-22T22:49:41.934Z,95180.44
2023-01-22T22:52:08.463Z,95183.53
2023-01-22T22:54:34.987Z,95175.06
2023-01-22T22:57:01.488Z,95179.16
2023-01-22T22:59:28.049Z,95171.56
2023-01-22T23:01:54.698Z,95182.38
2023-01-22T23:04:21.239Z,95181.06
2023-01-22T23:06:48.180Z,95183.63
2023-01-22T23:09:17.654Z,95186.53
2023-01-22T23:11:44.394Z,95192.00
2023-01-22T23:14:11.181Z,95184.22
2023-01-22T23:16:41.274Z,95187.19
2023-01-22T23:19:16.485Z,95186.13
2023-01-22T23:21:43.909Z,95177.84
2023-01-22T23:24:13.028Z,95183.34
2023-01-22T23:26:40.844Z,95176.94
2023-01-22T23:29:09.834Z,95179.41
2023-01-22T23:31:38.240Z,95177.00
2023-01-22T23:34:07.915Z,95182.31
2023-01-22T23:36:35.759Z,95178.94
2023-01-22T23:39:03.226Z,95176.06
2023-01-22T23:41:29.857Z,95177.66
2023-01-22T23:43:56.423Z,95176.38
2023-01-22T23:46:25.988Z,95179.75
2023-01-22T23:48:54.179Z,95178.75
2023-01-22T23:51:21.319Z,95178.44
2023-01-22T23:53:52.945Z,95177.75
2023-01-22T23:56:22.935Z,95171.66
2023-01-22T23:58:49.798Z,95168.31
